Time;durP1;ratioP1;P1;durP2;ratioP2;P2;SDS_P1;SDS_P2;PMS_P1;PMS_P2;Temp;Humidity;BMP_temperature;BMP_pressure;BME280_temperature;BME280_humidity;BME280_pressure;Samples;Min_cycle;Max_cycle;Signal;HPM_P1;HPM_P2
2022/04/22 00:01:59;;;;;;;;;;;19.80;99.90;;;;;;5001487;28;19925;-60
2022/04/22 00:04:32;;;;;;;;;;;19.80;99.90;;;;;;5017368;28;19968;-60
2022/04/22 00:07:00;;;;;;;;;;;19.80;99.90;;;;;;5005579;28;19964;-59
2022/04/22 00:09:27;;;;;;;;;;;19.80;99.90;;;;;;5003377;28;19933;-60
2022/04/22 00:11:54;;;;;;;;;;;19.80;99.90;;;;;;4991191;28;19930;-59
2022/04/22 00:14:22;;;;;;;;;;;19.80;99.90;;;;;;4994161;28;20324;-62
2022/04/22 00:16:50;;;;;;;;;;;19.80;99.90;;;;;;5005029;28;19926;-60
2022/04/22 00:19:17;;;;;;;;;;;19.80;99.90;;;;;;4988671;28;19934;-62
2022/04/22 00:21:47;;;;;;;;;;;19.80;99.90;;;;;;5000724;28;19936;-58
2022/04/22 00:24:15;;;;;;;;;;;19.80;99.90;;;;;;4996643;28;19956;-58
2022/04/22 00:26:43;;;;;;;;;;;19.80;99.90;;;;;;4988768;28;20313;-60
2022/04/22 00:29:11;;;;;;;;;;;19.70;99.90;;;;;;5002475;28;20001;-61
2022/04/22 00:31:39;;;;;;;;;;;19.70;99.90;;;;;;5009526;28;19937;-61
2022/04/22 00:34:06;;;;;;;;;;;19.80;99.90;;;;;;4997057;28;20413;-62
2022/04/22 00:36:33;;;;;;;;;;;19.80;99.90;;;;;;4995747;28;19930;-60
2022/04/22 00:39:05;;;;;;;;;;;19.80;99.90;;;;;;4999776;28;19929;-62
2022/04/22 00:41:32;;;;;;;;;;;19.70;99.90;;;;;;5005734;28;19929;-60
2022/04/22 00:43:59;;;;;;;;;;;19.80;99.90;;;;;;4998463;28;20186;-60
2022/04/22 00:46:26;;;;;;;;;;;19.70;99.90;;;;;;5012050;28;20336;-59
2022/04/22 00:48:53;;;;;;;;;;;19.70;99.90;;;;;;5004311;28;19968;-63
2022/04/22 00:51:22;;;;;;;;;;;19.70;99.90;;;;;;4999007;28;20549;-58
2022/04/22 00:53:50;;;;;;;;;;;19.70;99.90;;;;;;5002324;28;19930;-59
2022/04/22 00:56:18;;;;;;;;;;;19.70;99.90;;;;;;5007083;28;19925;-58
2022/04/22 00:58:46;;;;;;;;;;;19.70;99.90;;;;;;4998244;28;19929;-60
2022/04/22 01:01:13;;;;;;;;;;;19.70;99.90;;;;;;5004845;28;19936;-58
2022/04/22 01:09:47;;;;;;;;;;;19.70;99.90;;;;;;5011357;28;19930;-59
2022/04/22 01:12:06;;;;;;;;;;;19.60;99.90;;;;;;4994039;28;19929;-60
2022/04/22 01:14:34;;;;;;;;;;;19.60;99.90;;;;;;4995765;28;20336;-61
2022/04/22 01:17:02;;;;;;;;;;;19.70;99.90;;;;;;4991504;28;19926;-59
2022/04/22 01:19:29;;;;;;;;;;;19.70;99.90;;;;;;4992572;28;19929;-59
2022/04/22 01:21:57;;;;;;;;;;;19.60;99.90;;;;;;4999265;28;19929;-54
2022/04/22 01:24:24;;;;;;;;;;;19.70;99.90;;;;;;4998226;28;19937;-59
2022/04/22 01:26:53;;;;;;;;;;;19.60;99.90;;;;;;4990550;28;20505;-57
2022/04/22 01:29:20;;;;;;;;;;;19.60;99.90;;;;;;4998862;28;19948;-59
2022/04/22 01:31:47;;;;;;;;;;;19.60;99.90;;;;;;5007308;28;19925;-59
2022/04/22 01:34:14;;;;;;;;;;;19.60;99.90;;;;;;5009109;28;19925;-57
2022/04/22 01:36:42;;;;;;;;;;;19.60;99.90;;;;;;5006456;28;19929;-57
2022/04/22 01:39:09;;;;;;;;;;;19.60;99.90;;;;;;4994999;28;19946;-57
2022/04/22 01:41:36;;;;;;;;;;;19.60;99.90;;;;;;5006945;28;19936;-63
2022/04/22 01:44:04;;;;;;;;;;;19.60;99.90;;;;;;4990217;28;19930;-58
2022/04/22 01:46:31;;;;;;;;;;;19.60;99.90;;;;;;5007361;28;20351;-59
2022/04/22 01:48:58;;;;;;;;;;;19.60;99.90;;;;;;4995848;28;19929;-59
2022/04/22 01:51:25;;;;;;;;;;;19.60;99.90;;;;;;4999423;28;20326;-58
2022/04/22 01:53:52;;;;;;;;;;;19.60;99.90;;;;;;5002008;28;19926;-61
2022/04/22 01:56:20;;;;;;;;;;;19.60;99.90;;;;;;5004509;28;20444;-61
2022/04/22 01:58:47;;;;;;;;;;;19.60;99.90;;;;;;4994486;28;20393;-61
2022/04/22 02:01:14;;;;;;;;;;;19.60;99.90;;;;;;4998527;28;20432;-62
2022/04/22 02:03:41;;;;;;;;;;;19.60;99.90;;;;;;4989974;28;19930;-58
2022/04/22 02:06:08;;;;;;;;;;;19.60;99.90;;;;;;4997467;28;19933;-61
2022/04/22 02:08:36;;;;;;;;;;;19.60;99.90;;;;;;4989607;28;20392;-59
2022/04/22 02:11:04;;;;;;;;;;;19.60;99.90;;;;;;4998986;28;19929;-60
2022/04/22 02:13:36;;;;;;;;;;;19.60;99.90;;;;;;4989139;28;19930;-58
2022/04/22 02:16:07;;;;;;;;;;;19.60;99.90;;;;;;4999891;28;19936;-62
2022/04/22 02:18:41;;;;;;;;;;;19.60;99.90;;;;;;5008652;28;20317;-61
2022/04/22 02:21:09;;;;;;;;;;;19.50;99.90;;;;;;5007766;28;20055;-59
2022/04/22 02:23:37;;;;;;;;;;;19.60;99.90;;;;;;4989612;28;20708;-62
2022/04/22 02:26:05;;;;;;;;;;;19.60;99.90;;;;;;4999109;28;20398;-58
2022/04/22 02:28:32;;;;;;;;;;;19.50;99.90;;;;;;4989698;28;19933;-60
2022/04/22 02:30:59;;;;;;;;;;;19.60;99.90;;;;;;5000291;28;19934;-60
2022/04/22 02:33:27;;;;;;;;;;;19.60;99.90;;;;;;4993830;28;19930;-61
2022/04/22 02:35:54;;;;;;;;;;;19.60;99.90;;;;;;4993251;28;19929;-59
2022/04/22 02:38:21;;;;;;;;;;;19.50;99.90;;;;;;5002297;28;20401;-62
2022/04/22 02:46:20;;;;;;;;;;;19.50;99.90;;;;;;5005896;28;19929;-60
2022/04/22 02:48:48;;;;;;;;;;;19.50;99.90;;;;;;4991469;28;20312;-59
2022/04/22 02:51:15;;;;;;;;;;;19.50;99.90;;;;;;4996222;28;19953;-62
2022/04/22 02:53:42;;;;;;;;;;;19.50;99.90;;;;;;4987128;28;19930;-60
2022/04/22 02:56:10;;;;;;;;;;;19.50;99.90;;;;;;4996210;28;19934;-59
2022/04/22 02:58:38;;;;;;;;;;;19.50;99.90;;;;;;4988916;28;20316;-59
2022/04/22 03:01:05;;;;;;;;;;;19.50;99.90;;;;;;5001290;28;19932;-57
2022/04/22 03:03:33;;;;;;;;;;;19.50;99.90;;;;;;5003480;28;19926;-60
2022/04/22 03:06:00;;;;;;;;;;;19.50;99.90;;;;;;5006204;28;19934;-58
2022/04/22 03:08:30;;;;;;;;;;;19.50;99.90;;;;;;4988370;28;19934;-58
2022/04/22 03:10:57;;;;;;;;;;;19.50;99.90;;;;;;5000027;28;19937;-61
2022/04/22 03:13:24;;;;;;;;;;;19.50;99.90;;;;;;4988761;28;20396;-59
2022/04/22 03:15:52;;;;;;;;;;;19.50;99.90;;;;;;4997727;28;19930;-62
2022/04/22 03:18:19;;;;;;;;;;;19.50;99.90;;;;;;5002713;28;19933;-62
2022/04/22 03:20:46;;;;;;;;;;;19.50;99.90;;;;;;4997631;28;19936;-59
2022/04/22 03:23:13;;;;;;;;;;;19.40;99.90;;;;;;4995160;28;19940;-58
2022/04/22 03:25:41;;;;;;;;;;;19.40;99.90;;;;;;4993427;28;19954;-61
2022/04/22 03:28:08;;;;;;;;;;;19.50;99.90;;;;;;5003070;28;19932;-60
2022/04/22 03:30:37;;;;;;;;;;;19.40;99.90;;;;;;5012284;28;19929;-59
2022/04/22 03:33:05;;;;;;;;;;;19.40;99.90;;;;;;4994798;28;19948;-58
2022/04/22 03:35:32;;;;;;;;;;;19.40;99.90;;;;;;4998557;28;19933;-61
2022/04/22 03:37:59;;;;;;;;;;;19.40;99.90;;;;;;4989245;28;19952;-59
2022/04/22 03:40:26;;;;;;;;;;;19.40;99.90;;;;;;5004509;28;19930;-58
2022/04/22 03:42:54;;;;;;;;;;;19.40;99.90;;;;;;4991188;28;19964;-60
2022/04/22 03:45:22;;;;;;;;;;;19.40;99.90;;;;;;5007713;28;19940;-61
2022/04/22 03:47:49;;;;;;;;;;;19.40;99.90;;;;;;4999430;28;19936;-60
2022/04/22 03:50:16;;;;;;;;;;;19.40;99.90;;;;;;4994639;28;19929;-62
2022/04/22 03:52:43;;;;;;;;;;;19.40;99.90;;;;;;4994897;28;19929;-57
2022/04/22 03:55:10;;;;;;;;;;;19.40;99.90;;;;;;4988819;28;19941;-62
2022/04/22 04:00:23;;;;;;;;;;;19.40;99.90;;;;;;5000606;28;19930;-61
2022/04/22 04:02:50;;;;;;;;;;;19.40;99.90;;;;;;5007085;28;20461;-61
2022/04/22 04:05:18;;;;;;;;;;;19.40;99.90;;;;;;5010032;28;19936;-61
2022/04/22 04:07:45;;;;;;;;;;;19.30;99.90;;;;;;5005828;28;19941;-62
2022/04/22 04:15:59;;;;;;;;;;;19.30;99.90;;;;;;5002929;28;19945;-59
2022/04/22 04:18:27;;;;;;;;;;;19.30;99.90;;;;;;4991487;28;19930;-58
2022/04/22 04:23:40;;;;;;;;;;;19.30;99.90;;;;;;4991928;28;19936;-60
2022/04/22 04:26:07;;;;;;;;;;;19.30;99.90;;;;;;4996518;28;19937;-57
2022/04/22 04:28:35;;;;;;;;;;;19.30;99.90;;;;;;4993286;28;19933;-60
2022/04/22 04:31:03;;;;;;;;;;;19.30;99.90;;;;;;4990686;28;19930;-57
2022/04/22 04:33:31;;;;;;;;;;;19.30;99.90;;;;;;4999107;28;20306;-59
2022/04/22 04:35:58;;;;;;;;;;;19.30;99.90;;;;;;5004278;28;19936;-62
2022/04/22 04:38:26;;;;;;;;;;;19.30;99.90;;;;;;5021768;28;19930;-63
2022/04/22 04:40:53;;;;;;;;;;;19.30;99.90;;;;;;5003122;28;19926;-63
2022/04/22 04:43:21;;;;;;;;;;;19.30;99.90;;;;;;5002357;28;19933;-60
2022/04/22 04:45:50;;;;;;;;;;;19.30;99.90;;;;;;5013001;28;19936;-61
2022/04/22 04:48:17;;;;;;;;;;;19.30;99.90;;;;;;5006926;28;20393;-59
2022/04/22 04:50:45;;;;;;;;;;;19.30;99.90;;;;;;5000727;28;19949;-60
2022/04/22 04:53:13;;;;;;;;;;;19.30;99.90;;;;;;5003652;28;19930;-61
2022/04/22 04:55:40;;;;;;;;;;;19.30;99.90;;;;;;5005406;28;19930;-61
2022/04/22 04:58:07;;;;;;;;;;;19.30;99.90;;;;;;5004064;28;19960;-61
2022/04/22 05:00:35;;;;;;;;;;;19.30;99.90;;;;;;5004552;28;20328;-65
2022/04/22 05:03:03;;;;;;;;;;;19.30;99.90;;;;;;5007228;28;19940;-62
2022/04/22 05:05:30;;;;;;;;;;;19.30;99.90;;;;;;5007267;28;20389;-64
2022/04/22 05:07:58;;;;;;;;;;;19.40;99.90;;;;;;5004870;28;20020;-61
2022/04/22 05:10:26;;;;;;;;;;;19.50;99.90;;;;;;5007391;28;19952;-62
2022/04/22 05:12:53;;;;;;;;;;;19.50;99.90;;;;;;4995444;28;19960;-63
2022/04/22 05:15:24;;;;;;;;;;;19.50;99.90;;;;;;5011651;28;19940;-61
2022/04/22 05:17:52;;;;;;;;;;;19.50;99.90;;;;;;5007905;28;19934;-61
2022/04/22 05:20:20;;;;;;;;;;;19.50;99.90;;;;;;5004796;28;19929;-59
2022/04/22 05:22:47;;;;;;;;;;;19.50;99.90;;;;;;5004465;28;19933;-59
2022/04/22 05:25:15;;;;;;;;;;;19.50;99.90;;;;;;5001202;28;19925;-63
2022/04/22 05:27:42;;;;;;;;;;;19.40;99.10;;;;;;5006923;28;19929;-63
2022/04/22 05:32:56;;;;;;;;;;;19.50;98.40;;;;;;5003461;28;19941;-64
2022/04/22 05:35:27;;;;;;;;;;;19.50;98.20;;;;;;5007675;28;19929;-62
2022/04/22 05:37:56;;;;;;;;;;;19.50;97.90;;;;;;4996430;28;20342;-59
2022/04/22 05:40:24;;;;;;;;;;;19.40;97.60;;;;;;5008369;28;20386;-63
2022/04/22 05:42:52;;;;;;;;;;;19.30;96.70;;;;;;5005950;28;19933;-62
2022/04/22 05:45:20;;;;;;;;;;;19.30;96.10;;;;;;5007768;28;20282;-61
2022/04/22 05:47:47;;;;;;;;;;;19.30;95.40;;;;;;5002018;28;19929;-59
2022/04/22 05:50:15;;;;;;;;;;;19.30;94.90;;;;;;5006406;28;19929;-63
2022/04/22 05:52:43;;;;;;;;;;;19.30;94.60;;;;;;4998999;28;20436;-63
2022/04/22 05:55:16;;;;;;;;;;;19.20;94.30;;;;;;5006070;28;19929;-65
2022/04/22 05:57:44;;;;;;;;;;;19.20;94.00;;;;;;4995447;28;19930;-65
2022/04/22 06:00:15;;;;;;;;;;;19.20;93.70;;;;;;4999612;28;19929;-65
2022/04/22 06:02:43;;;;;;;;;;;19.20;93.20;;;;;;5005119;28;20030;-59
2022/04/22 06:05:12;;;;;;;;;;;19.20;93.60;;;;;;5006957;28;19937;-64
2022/04/22 06:07:42;;;;;;;;;;;19.20;93.60;;;;;;5004498;28;19933;-60
2022/04/22 06:12:57;;;;;;;;;;;19.20;93.30;;;;;;5006083;28;20305;-64
2022/04/22 06:15:24;;;;;;;;;;;19.20;93.30;;;;;;5008498;28;19929;-62
2022/04/22 06:17:52;;;;;;;;;;;19.20;93.00;;;;;;5006026;28;20372;-61
2022/04/22 06:20:19;;;;;;;;;;;19.10;92.90;;;;;;5004206;28;19936;-64
2022/04/22 06:22:46;;;;;;;;;;;19.10;92.80;;;;;;4996462;28;19929;-62
2022/04/22 06:25:14;;;;;;;;;;;19.10;92.60;;;;;;4990972;28;19930;-60
2022/04/22 06:27:41;;;;;;;;;;;19.10;92.30;;;;;;4992514;28;19993;-63
2022/04/22 06:30:19;;;;;;;;;;;19.10;92.40;;;;;;5005109;28;20581;-65
2022/04/22 06:32:47;;;;;;;;;;;19.00;92.50;;;;;;5001772;28;19937;-62
2022/04/22 06:35:15;;;;;;;;;;;19.10;93.10;;;;;;5004622;28;19933;-62
2022/04/22 06:37:43;;;;;;;;;;;19.10;92.60;;;;;;5006952;28;20396;-64
2022/04/22 06:45:46;;;;;;;;;;;19.10;92.90;;;;;;5011614;28;19936;-57
2022/04/22 06:48:15;;;;;;;;;;;19.20;93.10;;;;;;5002674;28;19929;-62
2022/04/22 06:51:06;;;;;;;;;;;19.20;93.30;;;;;;5004414;28;20012;-59
2022/04/22 06:53:34;;;;;;;;;;;19.20;93.60;;;;;;4997144;28;20456;-59
2022/04/22 06:56:02;;;;;;;;;;;19.30;93.80;;;;;;4993089;28;19929;-62
2022/04/22 06:58:31;;;;;;;;;;;19.30;94.30;;;;;;5038778;28;20066;-60
2022/04/22 07:00:58;;;;;;;;;;;19.30;94.50;;;;;;5005350;28;19929;-58
2022/04/22 07:03:25;;;;;;;;;;;19.30;94.70;;;;;;4988950;28;19929;-61
2022/04/22 07:05:53;;;;;;;;;;;19.30;94.90;;;;;;4995428;28;19945;-60
2022/04/22 07:08:20;;;;;;;;;;;19.30;95.30;;;;;;5000823;28;19926;-61
2022/04/22 07:10:48;;;;;;;;;;;19.30;95.40;;;;;;4998507;28;19930;-62
2022/04/22 07:13:16;;;;;;;;;;;19.30;95.90;;;;;;4994790;28;20413;-63
2022/04/22 07:15:44;;;;;;;;;;;19.30;96.00;;;;;;5007352;28;19929;-61
2022/04/22 07:18:12;;;;;;;;;;;19.30;95.60;;;;;;5011966;28;19937;-65
2022/04/22 07:20:39;;;;;;;;;;;19.30;95.50;;;;;;5007913;28;19929;-60
2022/04/22 07:23:06;;;;;;;;;;;19.20;95.10;;;;;;4989016;28;19930;-63
2022/04/22 07:25:34;;;;;;;;;;;19.20;95.10;;;;;;5002660;28;19936;-63
2022/04/22 07:28:02;;;;;;;;;;;19.20;96.10;;;;;;4998106;28;19936;-61
2022/04/22 07:30:29;;;;;;;;;;;19.30;96.40;;;;;;5006617;28;19936;-56
2022/04/22 07:32:56;;;;;;;;;;;19.30;96.10;;;;;;4997638;28;19936;-53
2022/04/22 07:35:24;;;;;;;;;;;19.30;96.20;;;;;;5006185;28;19925;-58
2022/04/22 07:37:52;;;;;;;;;;;19.40;96.40;;;;;;5001202;28;20274;-60
2022/04/22 07:40:20;;;;;;;;;;;19.40;95.80;;;;;;5009209;28;19930;-57
2022/04/22 07:48:36;;;;;;;;;;;19.40;95.80;;;;;;4991834;28;20275;-57
2022/04/22 07:51:03;;;;;;;;;;;19.40;95.30;;;;;;5003764;28;19930;-63
2022/04/22 07:53:30;;;;;;;;;;;19.40;95.00;;;;;;4992583;28;19933;-58
2022/04/22 07:55:57;;;;;;;;;;;19.50;95.10;;;;;;4994548;28;19929;-59
2022/04/22 07:58:24;;;;;;;;;;;19.50;94.40;;;;;;5010150;28;19933;-58
2022/04/22 08:00:51;;;;;;;;;;;19.50;94.70;;;;;;5011158;28;19936;-59
2022/04/22 08:03:19;;;;;;;;;;;19.50;95.20;;;;;;4995036;28;19929;-59
2022/04/22 08:05:46;;;;;;;;;;;19.50;95.70;;;;;;5005379;28;20186;-58
2022/04/22 08:08:13;;;;;;;;;;;19.40;96.00;;;;;;4996914;28;19934;-57
2022/04/22 08:10:40;;;;;;;;;;;19.40;96.30;;;;;;4995220;28;20318;-54
2022/04/22 08:13:07;;;;;;;;;;;19.40;96.90;;;;;;4992402;28;19929;-58
2022/04/22 08:15:35;;;;;;;;;;;19.30;96.60;;;;;;5011357;28;19948;-62
2022/04/22 08:18:03;;;;;;;;;;;19.40;96.20;;;;;;5029159;28;19925;-58
2022/04/22 08:20:31;;;;;;;;;;;19.40;96.20;;;;;;5025382;28;19930;-57
2022/04/22 08:23:02;;;;;;;;;;;19.80;95.10;;;;;;4993083;28;19933;-57
2022/04/22 08:25:29;;;;;;;;;;;20.50;93.90;;;;;;5004176;28;19925;-60
2022/04/22 08:27:56;;;;;;;;;;;20.50;93.50;;;;;;5001688;28;19930;-58
2022/04/22 08:30:23;;;;;;;;;;;20.20;93.90;;;;;;5010633;28;19934;-59
2022/04/22 08:32:51;;;;;;;;;;;19.90;94.00;;;;;;5009416;28;20029;-58
2022/04/22 08:35:18;;;;;;;;;;;19.80;94.10;;;;;;5006120;28;19933;-63
2022/04/22 08:37:45;;;;;;;;;;;19.60;94.50;;;;;;5003986;28;20009;-60
2022/04/22 08:40:13;;;;;;;;;;;19.60;94.70;;;;;;5012426;28;19940;-61
2022/04/22 08:42:41;;;;;;;;;;;19.50;94.60;;;;;;4996053;28;19929;-59
2022/04/22 08:45:09;;;;;;;;;;;19.50;94.70;;;;;;5001750;28;19941;-59
2022/04/22 08:50:37;;;;;;;;;;;19.60;95.50;;;;;;5009009;28;20313;-61
2022/04/22 08:53:05;;;;;;;;;;;19.50;95.80;;;;;;4990951;28;20397;-59
2022/04/22 08:55:33;;;;;;;;;;;19.50;96.00;;;;;;4988599;28;19926;-59
2022/04/22 08:58:01;;;;;;;;;;;19.50;96.30;;;;;;4987354;28;19945;-59
2022/04/22 09:00:30;;;;;;;;;;;19.50;96.40;;;;;;4987597;28;19934;-58
2022/04/22 09:02:57;;;;;;;;;;;19.50;95.60;;;;;;4984869;28;19937;-51
2022/04/22 09:05:25;;;;;;;;;;;19.60;95.20;;;;;;4986942;28;19948;-56
2022/04/22 09:07:53;;;;;;;;;;;19.60;95.30;;;;;;4983652;28;19926;-58
2022/04/22 09:10:20;;;;;;;;;;;19.60;95.90;;;;;;4985362;28;19925;-59
2022/04/22 09:12:52;;;;;;;;;;;19.60;96.00;;;;;;4974521;28;20315;-57
2022/04/22 09:15:24;;;;;;;;;;;19.60;96.30;;;;;;4983403;28;19934;-58
2022/04/22 09:18:00;;;;;;;;;;;19.50;96.30;;;;;;4989283;28;19964;-57
2022/04/22 09:20:29;;;;;;;;;;;19.50;95.80;;;;;;4987760;28;19930;-56
2022/04/22 09:22:57;;;;;;;;;;;19.50;95.80;;;;;;4984325;28;19941;-60
2022/04/22 09:25:25;;;;;;;;;;;19.50;95.80;;;;;;4983619;28;19934;-57
2022/04/22 09:27:53;;;;;;;;;;;19.50;96.10;;;;;;4976599;28;19937;-57
2022/04/22 09:30:31;;;;;;;;;;;19.50;96.10;;;;;;4987973;28;19929;-58
2022/04/22 09:32:59;;;;;;;;;;;19.50;96.10;;;;;;4986916;28;19934;-59
2022/04/22 09:35:28;;;;;;;;;;;19.50;96.10;;;;;;4979965;28;20016;-61
2022/04/22 09:43:34;;;;;;;;;;;19.50;95.80;;;;;;4982952;28;19930;-60
2022/04/22 09:46:02;;;;;;;;;;;19.50;95.20;;;;;;4988803;28;19929;-60
2022/04/22 09:48:44;;;;;;;;;;;19.40;95.00;;;;;;4989139;28;19926;-58
2022/04/22 09:51:22;;;;;;;;;;;19.50;94.80;;;;;;4990072;28;19929;-59
2022/04/22 09:54:00;;;;;;;;;;;19.50;94.60;;;;;;4994762;28;19933;-60
2022/04/22 09:56:28;;;;;;;;;;;19.50;94.90;;;;;;5001367;28;19936;-57
2022/04/22 09:58:56;;;;;;;;;;;19.50;94.60;;;;;;5005515;28;19973;-58
2022/04/22 10:01:23;;;;;;;;;;;19.50;94.40;;;;;;5007339;28;20385;-60
2022/04/22 10:04:11;;;;;;;;;;;19.50;94.40;;;;;;5005468;28;19925;-55
2022/04/22 10:06:38;;;;;;;;;;;19.50;95.10;;;;;;5002393;28;20004;-55
2022/04/22 10:09:05;;;;;;;;;;;19.60;94.70;;;;;;5006602;28;19926;-57
2022/04/22 10:11:32;;;;;;;;;;;19.60;94.40;;;;;;5003315;28;19930;-58
2022/04/22 10:14:00;;;;;;;;;;;19.60;94.40;;;;;;4999323;28;19930;-59
2022/04/22 10:16:27;;;;;;;;;;;19.60;94.40;;;;;;5002314;28;19930;-58
2022/04/22 10:18:55;;;;;;;;;;;19.60;94.50;;;;;;5007188;28;19936;-58
2022/04/22 10:21:23;;;;;;;;;;;19.60;94.30;;;;;;4996939;28;19937;-58
2022/04/22 10:23:50;;;;;;;;;;;19.50;94.20;;;;;;4997451;28;19929;-58
2022/04/22 10:26:18;;;;;;;;;;;19.30;89.10;;;;;;4998379;28;19925;-55
2022/04/22 10:28:46;;;;;;;;;;;19.00;90.00;;;;;;5005513;28;19940;-57
2022/04/22 10:31:13;;;;;;;;;;;18.70;88.00;;;;;;5016576;28;19930;-58
2022/04/22 10:33:42;;;;;;;;;;;18.20;85.60;;;;;;5010934;28;19930;-60
2022/04/22 10:36:13;;;;;;;;;;;18.10;85.60;;;;;;5001947;28;19929;-60
2022/04/22 10:38:44;;;;;;;;;;;18.20;86.30;;;;;;5005628;28;19933;-59
2022/04/22 10:41:18;;;;;;;;;;;18.30;85.60;;;;;;5009177;28;19933;-62
2022/04/22 10:49:38;;;;;;;;;;;18.90;87.60;;;;;;5020084;28;19936;-59
2022/04/22 10:52:13;;;;;;;;;;;19.10;88.10;;;;;;5002153;28;19929;-61
2022/04/22 10:54:52;;;;;;;;;;;19.20;87.70;;;;;;5013634;28;19936;-58
2022/04/22 10:57:23;;;;;;;;;;;18.70;84.60;;;;;;4998556;28;19930;-56
2022/04/22 11:00:17;;;;;;;;;;;18.60;86.70;;;;;;5013460;28;20412;-59
2022/04/22 11:02:46;;;;;;;;;;;18.80;87.20;;;;;;5000423;28;19929;-57
2022/04/22 11:05:18;;;;;;;;;;;18.90;87.10;;;;;;4998548;28;19933;-59
2022/04/22 11:07:52;;;;;;;;;;;19.10;87.30;;;;;;5002157;28;20381;-61
2022/04/22 11:10:21;;;;;;;;;;;19.20;87.60;;;;;;5002770;28;20404;-60
2022/04/22 11:12:54;;;;;;;;;;;19.20;88.00;;;;;;4997915;28;19929;-59
2022/04/22 11:15:40;;;;;;;;;;;19.20;87.70;;;;;;4997992;28;19930;-58
2022/04/22 11:18:08;;;;;;;;;;;18.80;85.50;;;;;;4995283;28;19948;-59
2022/04/22 11:20:37;;;;;;;;;;;18.60;83.80;;;;;;5005487;28;20363;-59
2022/04/22 11:23:09;;;;;;;;;;;18.60;84.10;;;;;;5003064;28;20346;-57
2022/04/22 11:25:36;;;;;;;;;;;18.70;84.40;;;;;;4996778;28;20460;-59
2022/04/22 11:28:04;;;;;;;;;;;18.70;84.50;;;;;;5006030;28;20261;-59
2022/04/22 11:30:32;;;;;;;;;;;18.90;84.80;;;;;;4999992;28;19929;-58
2022/04/22 11:33:02;;;;;;;;;;;18.90;85.20;;;;;;5004812;28;19929;-59
2022/04/22 11:35:33;;;;;;;;;;;19.00;85.20;;;;;;4999749;28;19932;-56
2022/04/22 11:38:07;;;;;;;;;;;19.00;85.70;;;;;;5000090;28;19929;-57
2022/04/22 11:40:39;;;;;;;;;;;19.10;86.00;;;;;;5002315;28;19929;-58
2022/04/22 11:43:07;;;;;;;;;;;19.20;86.10;;;;;;5031193;28;19933;-58
2022/04/22 11:45:35;;;;;;;;;;;19.20;86.30;;;;;;5002703;28;19936;-58
2022/04/22 11:48:06;;;;;;;;;;;19.30;86.60;;;;;;5014020;28;19930;-56
2022/04/22 11:50:38;;;;;;;;;;;19.20;86.90;;;;;;5002664;28;20392;-55
2022/04/22 11:53:16;;;;;;;;;;;19.30;87.30;;;;;;5015473;28;19945;-54
2022/04/22 11:55:44;;;;;;;;;;;19.30;87.70;;;;;;5001591;28;19937;-57
2022/04/22 11:58:23;;;;;;;;;;;19.30;88.00;;;;;;5001268;28;19930;-58
2022/04/22 12:06:32;;;;;;;;;;;19.30;89.10;;;;;;4995973;28;19925;-55
2022/04/22 12:09:01;;;;;;;;;;;19.30;89.40;;;;;;5002491;28;19930;-58
2022/04/22 12:11:28;;;;;;;;;;;19.40;89.70;;;;;;5006216;28;19936;-58
2022/04/22 12:13:56;;;;;;;;;;;19.30;89.90;;;;;;5010102;28;19930;-56
2022/04/22 12:16:26;;;;;;;;;;;19.30;90.00;;;;;;5006685;28;20507;-59
2022/04/22 12:18:54;;;;;;;;;;;19.40;90.20;;;;;;5002249;28;19936;-58
2022/04/22 12:21:22;;;;;;;;;;;19.40;90.30;;;;;;5001611;28;19960;-59
2022/04/22 12:23:51;;;;;;;;;;;19.40;90.40;;;;;;4997692;28;20031;-58
2022/04/22 12:26:22;;;;;;;;;;;19.40;90.50;;;;;;5010343;28;20001;-57
2022/04/22 12:29:07;;;;;;;;;;;19.40;90.60;;;;;;5005452;28;20013;-57
2022/04/22 12:31:38;;;;;;;;;;;19.50;90.70;;;;;;5004408;28;19925;-55
2022/04/22 12:34:09;;;;;;;;;;;19.50;90.80;;;;;;5008939;28;19941;-57
2022/04/22 12:36:38;;;;;;;;;;;19.50;90.90;;;;;;5006799;28;19929;-56
2022/04/22 12:39:08;;;;;;;;;;;19.50;91.00;;;;;;5003030;28;20248;-58
2022/04/22 12:41:47;;;;;;;;;;;19.50;91.00;;;;;;5011072;28;19929;-56
2022/04/22 12:44:14;;;;;;;;;;;19.50;91.10;;;;;;5003604;28;19937;-58
2022/04/22 12:52:23;;;;;;;;;;;19.50;90.20;;;;;;4998071;28;19929;-57
2022/04/22 12:54:51;;;;;;;;;;;19.20;85.00;;;;;;5006871;28;19937;-59
2022/04/22 12:57:19;;;;;;;;;;;19.00;82.80;;;;;;5012013;28;19940;-59
2022/04/22 12:59:49;;;;;;;;;;;18.90;82.90;;;;;;5012553;28;20412;-60
2022/04/22 13:02:18;;;;;;;;;;;18.90;83.30;;;;;;5014052;28;19929;-56
2022/04/22 13:04:49;;;;;;;;;;;18.90;82.80;;;;;;4995102;28;19930;-60
2022/04/22 13:07:16;;;;;;;;;;;18.90;82.30;;;;;;5010427;28;19936;-57
2022/04/22 13:09:43;;;;;;;;;;;19.10;83.30;;;;;;5006989;28;20586;-57
2022/04/22 13:12:10;;;;;;;;;;;19.30;83.40;;;;;;5002778;28;19937;-57
2022/04/22 13:14:37;;;;;;;;;;;19.30;83.40;;;;;;5000621;28;20301;-58
2022/04/22 13:17:05;;;;;;;;;;;19.40;83.70;;;;;;4999365;28;19949;-56
2022/04/22 13:19:32;;;;;;;;;;;19.50;84.10;;;;;;5005719;28;19926;-57
2022/04/22 13:22:00;;;;;;;;;;;19.50;84.40;;;;;;5007983;28;20001;-58
2022/04/22 13:24:27;;;;;;;;;;;19.60;84.80;;;;;;5007632;28;20354;-56
2022/04/22 13:26:55;;;;;;;;;;;19.60;85.10;;;;;;5019518;28;19930;-58
2022/04/22 13:29:22;;;;;;;;;;;19.70;85.40;;;;;;5009044;28;20317;-56
2022/04/22 13:31:49;;;;;;;;;;;19.70;85.60;;;;;;5003024;28;19936;-57
2022/04/22 13:34:16;;;;;;;;;;;19.80;86.00;;;;;;5006987;28;20370;-58
2022/04/22 13:36:43;;;;;;;;;;;19.80;86.30;;;;;;5011033;28;19930;-58
2022/04/22 13:39:11;;;;;;;;;;;19.90;86.50;;;;;;5014486;28;20263;-58
2022/04/22 13:41:38;;;;;;;;;;;19.90;86.80;;;;;;5007861;28;19925;-56
2022/04/22 13:44:05;;;;;;;;;;;20.00;87.20;;;;;;4997764;28;19929;-54
2022/04/22 13:52:22;;;;;;;;;;;20.00;88.10;;;;;;5006010;28;19952;-57
2022/04/22 13:54:49;;;;;;;;;;;20.00;88.30;;;;;;5003303;28;19929;-57
2022/04/22 13:57:16;;;;;;;;;;;20.10;88.60;;;;;;5006607;28;20015;-58
2022/04/22 13:59:43;;;;;;;;;;;20.00;88.80;;;;;;4997505;28;19930;-57
2022/04/22 14:02:10;;;;;;;;;;;20.10;89.10;;;;;;4997415;28;20389;-59
2022/04/22 14:04:38;;;;;;;;;;;20.10;89.30;;;;;;5001951;28;19933;-59
2022/04/22 14:07:06;;;;;;;;;;;20.00;89.60;;;;;;4998807;28;20311;-58
2022/04/22 14:09:35;;;;;;;;;;;20.00;89.80;;;;;;4997863;28;19937;-58
2022/04/22 14:12:02;;;;;;;;;;;20.00;90.00;;;;;;4998344;28;19925;-62
2022/04/22 14:14:29;;;;;;;;;;;20.00;90.10;;;;;;5004116;28;19925;-58
2022/04/22 14:16:57;;;;;;;;;;;20.00;90.20;;;;;;5007806;28;19929;-58
2022/04/22 14:19:25;;;;;;;;;;;19.90;90.30;;;;;;4995520;28;19940;-60
2022/04/22 14:21:52;;;;;;;;;;;20.00;90.40;;;;;;5014863;28;19929;-56
2022/04/22 14:24:20;;;;;;;;;;;19.90;90.50;;;;;;5019937;28;19925;-58
2022/04/22 14:26:47;;;;;;;;;;;19.90;90.60;;;;;;4995094;28;19956;-60
2022/04/22 14:29:36;;;;;;;;;;;19.90;90.70;;;;;;5015243;28;20308;-59
2022/04/22 14:32:04;;;;;;;;;;;19.90;90.80;;;;;;5022671;28;19929;-58
2022/04/22 14:34:31;;;;;;;;;;;19.90;90.90;;;;;;5009660;28;19936;-59
2022/04/22 14:36:58;;;;;;;;;;;19.80;90.90;;;;;;5010594;28;20291;-59
2022/04/22 14:39:26;;;;;;;;;;;19.80;91.00;;;;;;5014113;28;19925;-59
2022/04/22 14:41:53;;;;;;;;;;;19.80;91.10;;;;;;4995767;28;19937;-57
2022/04/22 14:44:20;;;;;;;;;;;19.90;91.10;;;;;;5011392;28;19925;-59
2022/04/22 14:46:47;;;;;;;;;;;19.90;91.10;;;;;;5023532;28;19933;-56
2022/04/22 14:49:15;;;;;;;;;;;20.00;91.10;;;;;;5007049;28;19944;-59
2022/04/22 14:51:48;;;;;;;;;;;20.10;91.10;;;;;;4998609;28;20310;-58
2022/04/22 14:54:15;;;;;;;;;;;20.10;91.10;;;;;;5006602;28;20289;-60
2022/04/22 14:56:42;;;;;;;;;;;20.20;91.10;;;;;;5015376;28;19929;-58
2022/04/22 14:59:13;;;;;;;;;;;20.30;91.10;;;;;;4994133;28;19945;-58
2022/04/22 15:01:40;;;;;;;;;;;20.40;91.00;;;;;;5006701;28;20339;-58
2022/04/22 15:04:07;;;;;;;;;;;20.50;91.00;;;;;;4996799;28;19930;-59
2022/04/22 15:06:36;;;;;;;;;;;20.50;91.00;;;;;;5002418;28;19925;-56
2022/04/22 15:09:04;;;;;;;;;;;20.40;91.10;;;;;;4998735;28;19929;-59
2022/04/22 15:11:35;;;;;;;;;;;20.40;91.20;;;;;;5000166;28;19929;-55
2022/04/22 15:14:04;;;;;;;;;;;20.30;91.40;;;;;;5005329;28;19925;-59
2022/04/22 15:16:31;;;;;;;;;;;20.30;91.40;;;;;;5005889;28;19933;-57
2022/04/22 15:24:30;;;;;;;;;;;20.20;91.60;;;;;;4998235;28;19930;-55
2022/04/22 15:26:58;;;;;;;;;;;20.10;91.70;;;;;;4999269;28;19929;-58
2022/04/22 15:29:28;;;;;;;;;;;20.10;91.80;;;;;;5006759;28;19936;-58
2022/04/22 15:31:59;;;;;;;;;;;20.10;91.80;;;;;;5013243;28;19933;-57
2022/04/22 15:34:27;;;;;;;;;;;20.10;91.90;;;;;;5003307;28;19933;-58
2022/04/22 15:36:54;;;;;;;;;;;20.10;91.90;;;;;;5006539;28;19936;-59
2022/04/22 15:39:21;;;;;;;;;;;20.10;92.00;;;;;;5009490;28;20266;-59
2022/04/22 15:41:53;;;;;;;;;;;20.00;92.00;;;;;;5009414;28;19933;-59